YM Pluto — 9HA2098 — position and weather

sailwx.info

Track history (hours):
 
Tides and Currents Weather Stations Pressure Air Temp Water Temp Dewpoint Dewpoint Depression Visibility Wind Speed Wind Dir Waves Ship Positions

YM Pluto

Last reported at 2017-Nov-18 14:12 UTC. Time now 2017-Nov-24 14:56 UTC.
Position N 34°16' E 034°44'.

Length 119 m; draft 6.6 m.

Type: Ship. MMSI: 249957000.

Date/timePositionNaut miles runAvg speedWind from/ knotsBaromVisibWave heightAir tempDewpointWater temp
2017-Nov-18 14:12N 34°16' E 034°44'210.3
2017-Nov-18 14:00N 34°14' E 034°44'84 2.3
2017-Nov-17 01:08N 32°50' E 035°01'3 0.4
2017-Nov-16 16:37N 32°53' E 034°59'1 6.0
2017-Nov-16 16:30N 32°53' E 034°59'4 7.2
2017-Nov-16 16:00N 32°53' E 034°54'5 9.4
2017-Nov-16 15:30N 32°53' E 034°49'5 9.3
2017-Nov-16 15:00N 32°53' E 034°43'5 9.4
2017-Nov-16 14:31N 32°53' E 034°38'5 9.5
2017-Nov-16 14:00N 32°52' E 034°32'1 2.5
2017-Nov-16 13:26N 32°53' E 034°30'5 7.8
2017-Nov-16 12:45N 32°53' E 034°37'2 7.8
2017-Nov-16 12:29N 32°52' E 034°39'4 7.7
2017-Nov-16 11:59N 32°48' E 034°39'4 7.4
2017-Nov-16 11:29N 32°44' E 034°38'3 7.2
2017-Nov-16 11:00N 32°41' E 034°36'4 7.3
2017-Nov-16 10:30N 32°39' E 034°33'4 7.5
2017-Nov-16 10:00N 32°37' E 034°29'3 6.7
2017-Nov-16 09:30N 32°37' E 034°25'4 7.0
2017-Nov-16 09:00N 32°39' E 034°22'28 3.4
2017-Nov-16 00:47N 32°53' E 034°51'10 0.2
2017-Nov-14 02:52N 32°49' E 035°02'4 2.8
2017-Nov-14 01:26N 32°52' E 034°59'410.1
2017-Nov-14 01:00N 32°53' E 034°54'610.9
2017-Nov-14 00:29N 32°54' E 034°47'  
2017-Nov-10 01:27N 36°10' E 014°46'511.1
2017-Nov-10 01:00N 36°12' E 014°40'511.0
2017-Nov-10 00:30N 36°14' E 014°34'611.0
2017-Nov-10 00:00N 36°15' E 014°27'511.0
2017-Nov-09 23:30N 36°17' E 014°21'611.0
2017-Nov-09 23:00N 36°20' E 014°14'511.1
2017-Nov-09 22:30N 36°22' E 014°08'611.1
2017-Nov-09 22:00N 36°24' E 014°02'611.2
2017-Nov-09 21:30N 36°26' E 013°55'  
Track history (hours):
 
Tides and Currents Weather Stations Pressure Air Temp Water Temp Dewpoint Dewpoint Depression Visibility Wind Speed Wind Dir Waves Ship Positions

YM Pluto

Last reported at 2017-Nov-18 14:12 UTC. Time now 2017-Nov-24 14:56 UTC.
Position N 34°16' E 034°44'.

Length 119 m; draft 6.6 m.

Type: Ship. MMSI: 249957000.

Date/timePositionNaut miles runAvg speedWind from/ knotsBaromVisibWave heightAir tempDewpointWater temp
2017-Nov-18 14:12N 34°16' E 034°44'210.3
2017-Nov-18 14:00N 34°14' E 034°44'84 2.3
2017-Nov-17 01:08N 32°50' E 035°01'3 0.4
2017-Nov-16 16:37N 32°53' E 034°59'1 6.0
2017-Nov-16 16:30N 32°53' E 034°59'4 7.2
2017-Nov-16 16:00N 32°53' E 034°54'5 9.4
2017-Nov-16 15:30N 32°53' E 034°49'5 9.3
2017-Nov-16 15:00N 32°53' E 034°43'5 9.4
2017-Nov-16 14:31N 32°53' E 034°38'5 9.5
2017-Nov-16 14:00N 32°52' E 034°32'1 2.5
2017-Nov-16 13:26N 32°53' E 034°30'5 7.8
2017-Nov-16 12:45N 32°53' E 034°37'2 7.8
2017-Nov-16 12:29N 32°52' E 034°39'4 7.7
2017-Nov-16 11:59N 32°48' E 034°39'4 7.4
2017-Nov-16 11:29N 32°44' E 034°38'3 7.2
2017-Nov-16 11:00N 32°41' E 034°36'4 7.3
2017-Nov-16 10:30N 32°39' E 034°33'4 7.5
2017-Nov-16 10:00N 32°37' E 034°29'3 6.7
2017-Nov-16 09:30N 32°37' E 034°25'4 7.0
2017-Nov-16 09:00N 32°39' E 034°22'28 3.4
2017-Nov-16 00:47N 32°53' E 034°51'10 0.2
2017-Nov-14 02:52N 32°49' E 035°02'4 2.8
2017-Nov-14 01:26N 32°52' E 034°59'410.1
2017-Nov-14 01:00N 32°53' E 034°54'610.9
2017-Nov-14 00:29N 32°54' E 034°47'  
2017-Nov-10 01:27N 36°10' E 014°46'511.1
2017-Nov-10 01:00N 36°12' E 014°40'511.0
2017-Nov-10 00:30N 36°14' E 014°34'611.0
2017-Nov-10 00:00N 36°15' E 014°27'511.0
2017-Nov-09 23:30N 36°17' E 014°21'611.0
2017-Nov-09 23:00N 36°20' E 014°14'511.1
2017-Nov-09 22:30N 36°22' E 014°08'611.1
2017-Nov-09 22:00N 36°24' E 014°02'611.2
2017-Nov-09 21:30N 36°26' E 013°55'  

Dump ship's entire track history